Time;durP1;ratioP1;P1;durP2;ratioP2;P2;SDS_P1;SDS_P2;PMS_P1;PMS_P2;Temp;Humidity;BMP_temperature;BMP_pressure;BME280_temperature;BME280_humidity;BME280_pressure;Samples;Min_cycle;Max_cycle;Signal;HPM_P1;HPM_P2
2022/01/19 00:00:07;;;;;;;3.38;3.17;;;16.10;62.30;;;;;;4958338;29;20042;-20
2022/01/19 00:02:33;;;;;;;3.33;3.13;;;16.10;62.20;;;;;;4958643;28;20400;-21
2022/01/19 00:04:58;;;;;;;3.25;2.95;;;16.10;62.30;;;;;;4959026;28;20416;-21
2022/01/19 00:07:24;;;;;;;3.00;2.80;;;16.10;62.20;;;;;;4957998;28;20039;-22
2022/01/19 00:09:50;;;;;;;3.28;3.08;;;16.10;62.20;;;;;;4958814;28;20047;-19
2022/01/19 00:12:15;;;;;;;2.78;2.60;;;16.10;62.30;;;;;;4958295;28;20114;-21
2022/01/19 00:14:41;;;;;;;3.33;3.13;;;16.10;62.30;;;;;;4958932;28;20047;-20
2022/01/19 00:17:06;;;;;;;3.28;3.08;;;16.00;62.20;;;;;;4958542;28;20027;-21
2022/01/19 00:19:32;;;;;;;2.95;2.75;;;16.10;62.30;;;;;;4957751;28;20055;-21
2022/01/19 00:21:57;;;;;;;3.20;3.00;;;16.10;62.20;;;;;;4957298;29;20046;-22
2022/01/19 00:24:23;;;;;;;3.33;3.13;;;16.10;62.10;;;;;;4958162;28;20032;-20
2022/01/19 00:26:49;;;;;;;2.88;2.78;;;16.10;62.10;;;;;;4958431;28;20126;-21
2022/01/19 00:29:14;;;;;;;3.42;3.13;;;16.10;62.10;;;;;;4958024;28;20376;-21
2022/01/19 00:31:40;;;;;;;3.20;3.00;;;16.10;62.10;;;;;;4958053;28;20036;-21
2022/01/19 00:34:05;;;;;;;2.67;2.47;;;16.10;62.00;;;;;;4954216;28;20024;-22
2022/01/19 00:36:32;;;;;;;3.20;3.00;;;16.10;62.00;;;;;;4957737;29;20095;-21
2022/01/19 00:38:57;;;;;;;2.92;2.75;;;16.10;62.10;;;;;;4958091;28;20098;-22
2022/01/19 00:41:23;;;;;;;2.60;2.50;;;16.10;62.00;;;;;;4958184;28;20039;-22
2022/01/19 00:43:48;;;;;;;2.60;2.40;;;16.10;62.90;;;;;;4957780;28;20365;-21
2022/01/19 00:46:14;;;;;;;2.90;2.70;;;16.10;62.00;;;;;;4958369;28;20063;-21
2022/01/19 00:48:41;;;;;;;3.22;3.03;;;16.10;62.90;;;;;;4957778;28;20437;-18
2022/01/19 00:51:07;;;;;;;3.20;3.00;;;16.00;62.10;;;;;;4958252;28;20042;-19
2022/01/19 00:53:32;;;;;;;3.40;3.20;;;16.00;62.10;;;;;;4957752;28;20023;-18
2022/01/19 00:55:58;;;;;;;3.30;3.10;;;16.00;62.10;;;;;;4946249;28;20042;-19
2022/01/19 00:58:24;;;;;;;2.72;2.53;;;16.00;62.10;;;;;;4942988;29;20059;-22
2022/01/19 01:00:50;;;;;;;3.22;3.03;;;16.00;62.10;;;;;;4943200;29;20039;-19
2022/01/19 01:03:15;;;;;;;3.25;3.05;;;16.00;62.10;;;;;;4942912;29;20035;-19
2022/01/19 01:05:41;;;;;;;2.70;2.55;;;16.00;62.20;;;;;;4943262;29;20039;-19
2022/01/19 01:08:07;;;;;;;3.05;2.85;;;16.00;62.20;;;;;;4942996;29;20058;-21
2022/01/19 01:10:41;;;;;;;3.10;2.90;;;16.00;62.10;;;;;;4942776;29;20032;-21
2022/01/19 01:13:21;;;;;;;2.67;2.58;;;16.00;62.00;;;;;;4958904;29;20035;-22
2022/01/19 01:18:21;;;;;;;2.83;2.63;;;16.00;62.10;;;;;;4962049;28;20114;-20
2022/01/19 01:20:51;;;;;;;2.92;2.80;;;16.00;62.00;;;;;;4956752;28;20028;-21
2022/01/19 01:23:18;;;;;;;3.22;3.03;;;16.00;62.10;;;;;;4942352;29;20155;-21
2022/01/19 01:25:43;;;;;;;3.40;3.20;;;15.90;62.20;;;;;;4942311;29;20066;-22
2022/01/19 01:28:09;;;;;;;2.65;2.55;;;15.90;62.10;;;;;;4948061;29;20047;-21
2022/01/19 01:30:35;;;;;;;2.92;2.72;;;16.00;62.10;;;;;;4961554;28;20031;-23
2022/01/19 01:33:01;;;;;;;2.45;2.35;;;16.00;62.20;;;;;;4961398;28;20117;-22
2022/01/19 01:35:26;;;;;;;3.13;2.92;;;15.90;62.10;;;;;;4961410;28;20094;-21
2022/01/19 01:37:52;;;;;;;3.20;3.00;;;15.90;62.20;;;;;;4961626;28;20035;-21
2022/01/19 01:40:18;;;;;;;2.90;2.70;;;15.90;62.30;;;;;;4961100;28;20082;-21
2022/01/19 01:42:44;;;;;;;2.58;2.42;;;15.90;62.20;;;;;;4961213;28;20047;-22
2022/01/19 01:45:13;;;;;;;2.88;2.78;;;15.90;62.30;;;;;;4961478;28;20039;-22
2022/01/19 01:47:43;;;;;;;2.30;2.20;;;15.90;62.10;;;;;;4960818;28;20034;-22
2022/01/19 01:55:21;;;;;;;2.50;2.40;;;15.90;62.30;;;;;;4940504;29;20035;-18
2022/01/19 01:57:47;;;;;;;3.28;3.08;;;15.80;62.20;;;;;;4942483;29;20035;-18
2022/01/19 02:00:14;;;;;;;2.40;2.30;;;15.80;62.40;;;;;;4946321;29;20031;-19
2022/01/19 02:02:40;;;;;;;2.90;2.70;;;15.90;62.30;;;;;;4961358;28;20048;-21
2022/01/19 02:05:10;;;;;;;2.60;2.50;;;15.80;62.40;;;;;;4961151;28;20083;-21
2022/01/19 02:23:57;;;;;;;2.20;2.10;;;15.80;62.20;;;;;;4968030;28;20039;-19
2022/01/19 02:26:31;;;;;;;2.30;2.20;;;15.90;62.30;;;;;;4960967;28;20066;-20
2022/01/19 02:42:06;;;;;;;2.65;2.55;;;15.80;62.10;;;;;;4956001;29;20173;-19
2022/01/19 02:46:38;;;;;;;2.65;2.55;;;15.80;62.10;;;;;;4941448;29;20079;-19
2022/01/19 02:49:54;;;;;;;2.60;2.40;;;15.80;62.10;;;;;;4944894;29;20035;-21
2022/01/19 02:52:20;;;;;;;2.42;2.33;;;15.80;62.10;;;;;;4941345;29;20015;-21
2022/01/19 02:54:46;;;;;;;2.28;2.17;;;15.80;62.20;;;;;;4959666;28;20118;-18
2022/01/19 02:57:13;;;;;;;2.00;1.90;;;15.80;62.10;;;;;;4960628;28;20058;-21
2022/01/19 03:10:27;;;;;;;2.50;2.40;;;15.80;62.10;;;;;;4941118;29;20107;-20
2022/01/19 03:12:52;;;;;;;2.20;2.10;;;15.80;62.30;;;;;;4954002;29;20063;-20
2022/01/19 03:15:19;;;;;;;2.40;2.30;;;15.80;62.20;;;;;;4959871;28;20118;-21
2022/01/19 03:17:44;;;;;;;2.45;2.25;;;15.80;62.30;;;;;;4959471;28;20037;-22
2022/01/19 03:20:10;;;;;;;2.40;2.30;;;15.80;62.20;;;;;;4959791;28;20113;-22
2022/01/19 03:22:42;;;;;;;2.38;2.17;;;15.70;62.20;;;;;;4959665;28;20106;-20
2022/01/19 03:25:12;;;;;;;2.92;2.45;;;15.80;62.20;;;;;;4959254;28;20032;-21
2022/01/19 03:27:39;;;;;;;2.20;2.10;;;15.80;62.10;;;;;;4959369;28;20115;-21
2022/01/19 03:30:06;;;;;;;2.70;2.50;;;15.70;62.20;;;;;;4959652;28;20031;-21
2022/01/19 03:32:32;;;;;;;2.22;2.13;;;15.80;62.10;;;;;;4959954;28;20022;-20
2022/01/19 03:34:58;;;;;;;2.33;2.22;;;15.80;62.10;;;;;;4958667;28;20043;-19
2022/01/19 03:37:24;;;;;;;2.38;2.28;;;15.80;62.10;;;;;;4959547;28;20042;-20
2022/01/19 03:39:49;;;;;;;2.30;2.20;;;15.80;62.10;;;;;;4958807;28;20034;-19
2022/01/19 03:42:15;;;;;;;2.40;2.30;;;15.70;62.10;;;;;;4959556;28;20035;-20
2022/01/19 03:44:40;;;;;;;2.47;2.38;;;15.80;62.10;;;;;;4959528;28;20027;-21
2022/01/19 03:47:07;;;;;;;2.47;2.38;;;15.70;62.20;;;;;;4958797;28;20054;-19
2022/01/19 03:49:34;;;;;;;2.00;1.90;;;15.70;62.20;;;;;;4959032;28;20032;-20
2022/01/19 03:52:02;;;;;;;2.20;2.10;;;15.70;62.20;;;;;;4957819;29;20059;-18
2022/01/19 03:54:32;;;;;;;2.20;2.10;;;15.70;62.20;;;;;;4958651;28;20460;-20
2022/01/19 03:56:58;;;;;;;2.00;1.90;;;15.70;62.30;;;;;;4940147;29;20108;-20
2022/01/19 03:59:24;;;;;;;2.15;2.05;;;15.70;62.40;;;;;;4940079;29;20055;-21
2022/01/19 04:01:53;;;;;;;1.98;1.88;;;15.70;62.40;;;;;;4951186;29;20035;-22
2022/01/19 04:04:35;;;;;;;1.90;1.80;;;15.70;62.40;;;;;;4959425;28;20039;-22
2022/01/19 04:07:08;;;;;;;2.25;2.15;;;15.70;63.10;;;;;;4959002;28;20042;-21
2022/01/19 04:09:44;;;;;;;2.30;2.20;;;15.70;62.40;;;;;;4958184;28;20516;-18
2022/01/19 04:12:14;;;;;;;2.08;1.98;;;15.70;62.40;;;;;;4958926;28;20491;-21
2022/01/19 04:14:39;;;;;;;2.15;2.05;;;15.70;62.50;;;;;;4958600;28;20471;-23
2022/01/19 04:17:07;;;;;;;2.40;2.30;;;15.70;62.50;;;;;;4958703;28;20512;-21
2022/01/19 04:19:41;;;;;;;2.42;2.33;;;15.70;62.30;;;;;;4958493;28;20023;-21
2022/01/19 04:22:08;;;;;;;2.30;2.20;;;15.70;62.20;;;;;;4958802;28;20038;-18
2022/01/19 04:24:34;;;;;;;2.30;2.20;;;15.70;62.40;;;;;;4958081;28;20077;-21
2022/01/19 04:30:12;;;;;;;2.25;2.15;;;15.60;62.40;;;;;;4958393;28;20027;-21
2022/01/19 04:35:08;;;;;;;2.40;2.30;;;15.70;62.50;;;;;;4946937;29;20051;-20
2022/01/19 04:46:35;;;;;;;2.22;2.13;;;15.60;62.60;;;;;;4939943;29;20078;-19
2022/01/19 05:04:56;;;;;;;1.95;1.85;;;15.60;62.50;;;;;;4943231;29;20074;-19
2022/01/19 05:07:32;;;;;;;2.20;2.10;;;15.60;63.00;;;;;;4939056;29;20079;-21
2022/01/19 05:13:24;;;;;;;2.30;2.10;;;15.60;62.40;;;;;;4939632;29;20043;-19
2022/01/19 05:15:31;;;;;;;2.53;2.38;;;15.60;62.60;;;;;;4939315;29;20058;-22
2022/01/19 05:17:56;;;;;;;2.15;2.05;;;15.60;62.60;;;;;;4940235;29;20035;-19
2022/01/19 05:20:22;;;;;;;2.50;2.33;;;15.50;62.50;;;;;;4958034;28;20028;-18
2022/01/19 05:22:47;;;;;;;2.20;2.10;;;15.60;62.60;;;;;;4957081;28;20087;-19
2022/01/19 05:25:13;;;;;;;2.30;2.20;;;15.60;62.50;;;;;;4957014;29;20027;-18
2022/01/19 05:27:39;;;;;;;2.40;2.30;;;15.50;62.50;;;;;;4958199;28;20027;-21
2022/01/19 05:30:05;;;;;;;2.33;2.22;;;15.60;62.60;;;;;;4957795;28;20031;-21
2022/01/19 05:32:30;;;;;;;2.55;2.40;;;15.60;62.50;;;;;;4958231;28;20114;-19
2022/01/19 05:34:56;;;;;;;2.25;2.15;;;15.60;62.50;;;;;;4957916;28;20175;-20
2022/01/19 05:37:21;;;;;;;1.88;1.77;;;15.60;63.40;;;;;;4958048;28;20502;-20
2022/01/19 05:39:47;;;;;;;2.03;1.92;;;15.60;62.50;;;;;;4948869;28;20036;-21
2022/01/19 05:42:16;;;;;;;2.00;1.90;;;15.60;62.60;;;;;;4942456;29;20020;-18
2022/01/19 05:44:43;;;;;;;2.15;2.05;;;15.60;62.60;;;;;;4942505;29;20127;-19
2022/01/19 05:47:10;;;;;;;2.30;2.20;;;15.60;62.60;;;;;;4951170;29;20377;-21
2022/01/19 05:49:36;;;;;;;2.03;1.92;;;15.60;62.60;;;;;;4961490;28;20078;-19
2022/01/19 05:52:02;;;;;;;2.17;2.08;;;15.60;62.60;;;;;;4951797;28;20020;-19
2022/01/19 05:54:27;;;;;;;2.08;1.98;;;15.50;62.60;;;;;;4958902;29;20023;-19
2022/01/19 05:56:53;;;;;;;1.98;1.88;;;15.50;62.80;;;;;;4946543;28;20038;-18
2022/01/19 05:59:21;;;;;;;2.10;2.00;;;15.50;62.80;;;;;;4942245;29;20119;-20
2022/01/19 06:01:47;;;;;;;2.13;2.03;;;15.60;62.70;;;;;;4943594;29;20497;-18
2022/01/19 06:04:13;;;;;;;2.25;2.15;;;15.60;62.70;;;;;;4961353;28;20509;-19
2022/01/19 06:06:39;;;;;;;1.90;1.80;;;15.50;62.70;;;;;;4961093;28;20457;-18
2022/01/19 06:09:10;;;;;;;2.10;2.00;;;15.50;62.70;;;;;;4960829;28;20042;-19
2022/01/19 06:11:36;;;;;;;2.05;1.95;;;15.50;62.60;;;;;;4955581;29;20027;-20
2022/01/19 06:14:02;;;;;;;2.10;2.00;;;15.50;62.80;;;;;;4947774;29;20086;-21
2022/01/19 06:16:27;;;;;;;2.10;2.00;;;15.50;62.70;;;;;;4961114;28;20023;-20
2022/01/19 06:18:53;;;;;;;2.05;1.95;;;15.50;62.70;;;;;;4960305;28;20035;-20
2022/01/19 06:21:18;;;;;;;2.17;2.08;;;15.50;62.80;;;;;;4960281;29;20590;-20
2022/01/19 06:23:44;;;;;;;2.30;2.20;;;15.50;62.80;;;;;;4960435;28;20064;-20
2022/01/19 06:26:09;;;;;;;2.30;2.20;;;15.50;62.70;;;;;;4960049;28;20034;-21
2022/01/19 06:28:35;;;;;;;2.10;2.00;;;15.50;62.70;;;;;;4961062;28;20066;-21
2022/01/19 06:31:01;;;;;;;2.17;2.08;;;15.50;62.80;;;;;;4960828;28;20019;-21
2022/01/19 06:33:26;;;;;;;1.75;1.65;;;15.50;62.80;;;;;;4960852;28;20023;-22
2022/01/19 06:35:53;;;;;;;2.13;2.03;;;15.50;62.90;;;;;;4960566;28;20106;-20
2022/01/19 06:38:18;;;;;;;2.03;1.92;;;15.50;62.90;;;;;;4960555;28;20448;-20
2022/01/19 06:40:44;;;;;;;1.88;1.77;;;15.50;62.90;;;;;;4959904;28;20477;-21
2022/01/19 06:43:10;;;;;;;1.80;1.70;;;15.50;63.00;;;;;;4960843;28;20038;-22
2022/01/19 06:45:35;;;;;;;2.35;2.25;;;15.50;62.90;;;;;;4959989;28;20039;-20
2022/01/19 06:48:01;;;;;;;2.10;2.00;;;15.50;62.90;;;;;;4960472;28;20027;-20
2022/01/19 06:50:28;;;;;;;2.10;2.00;;;15.50;62.90;;;;;;4959745;28;20031;-21
2022/01/19 06:52:53;;;;;;;2.03;1.92;;;15.50;62.90;;;;;;4959881;28;20082;-19
2022/01/19 06:55:19;;;;;;;1.83;1.70;;;15.50;62.90;;;;;;4957619;28;20057;-21
2022/01/19 06:57:45;;;;;;;2.22;2.13;;;15.50;63.00;;;;;;4956613;29;20038;-22
2022/01/19 07:00:11;;;;;;;2.00;1.90;;;15.40;63.00;;;;;;4959917;28;20066;-19
2022/01/19 07:02:36;;;;;;;1.45;1.42;;;15.50;63.00;;;;;;4960579;28;20024;-21
2022/01/19 07:05:04;;;;;;;1.90;1.80;;;15.40;63.00;;;;;;4960348;28;20027;-23
2022/01/19 07:07:30;;;;;;;2.15;2.05;;;15.50;63.10;;;;;;4959627;28;20110;-19
2022/01/19 07:09:55;;;;;;;1.63;1.52;;;15.50;63.20;;;;;;4960171;28;20220;-21
2022/01/19 07:12:21;;;;;;;2.22;2.13;;;15.50;63.20;;;;;;4959770;28;20035;-21
2022/01/19 07:14:47;;;;;;;2.10;2.00;;;15.50;63.10;;;;;;4959898;28;20031;-23
2022/01/19 07:17:12;;;;;;;1.80;1.70;;;15.50;63.10;;;;;;4960072;28;20190;-21
2022/01/19 07:19:38;;;;;;;1.95;1.85;;;15.40;63.10;;;;;;4950062;28;20031;-21
2022/01/19 07:22:04;;;;;;;2.20;2.10;;;15.40;63.10;;;;;;4940392;29;20091;-20
2022/01/19 07:24:29;;;;;;;2.45;1.85;;;15.40;63.00;;;;;;4940668;29;20028;-19
2022/01/19 07:26:55;;;;;;;1.80;1.70;;;15.50;62.50;;;;;;4941137;29;20284;-19
2022/01/19 07:29:20;;;;;;;3.53;1.80;;;15.50;62.50;;;;;;4940623;29;20035;-19
2022/01/19 07:31:46;;;;;;;2.38;2.20;;;15.50;62.70;;;;;;4940620;29;20457;-20
2022/01/19 07:34:12;;;;;;;6.90;3.95;;;15.50;62.80;;;;;;4941264;29;20056;-21
2022/01/19 07:36:37;;;;;;;4.78;3.58;;;15.50;62.80;;;;;;4958654;28;20051;-22
2022/01/19 07:39:03;;;;;;;7.55;3.00;;;15.50;62.50;;;;;;4959723;28;20027;-21
2022/01/19 07:41:29;;;;;;;4.55;3.33;;;15.50;62.50;;;;;;4958836;28;20031;-20
2022/01/19 07:43:55;;;;;;;3.80;3.45;;;15.50;62.80;;;;;;4956178;28;20026;-22
2022/01/19 07:46:20;;;;;;;3.85;2.90;;;15.50;63.20;;;;;;4957106;28;20035;-21
2022/01/19 07:48:46;;;;;;;3.40;3.10;;;15.50;63.00;;;;;;4957199;28;20102;-20
2022/01/19 07:51:11;;;;;;;3.97;3.25;;;15.50;63.50;;;;;;4957383;28;20039;-19
2022/01/19 07:53:37;;;;;;;5.03;3.00;;;15.50;64.10;;;;;;4957237;28;20508;-19
2022/01/19 07:56:03;;;;;;;6.78;3.63;;;15.50;64.80;;;;;;4957935;28;20175;-19
2022/01/19 07:58:29;;;;;;;5.55;3.70;;;15.50;65.00;;;;;;4955262;28;20492;-22
2022/01/19 08:00:55;;;;;;;9.07;3.50;;;15.50;65.10;;;;;;4956885;28;20066;-21
2022/01/19 08:03:20;;;;;;;7.65;4.05;;;15.50;65.50;;;;;;4956150;28;20039;-21
2022/01/19 08:05:46;;;;;;;4.72;3.60;;;15.50;65.60;;;;;;4956779;28;20071;-20
2022/01/19 08:08:11;;;;;;;5.13;3.75;;;15.50;65.30;;;;;;4956253;28;20050;-21
2022/01/19 08:10:37;;;;;;;6.85;4.30;;;15.50;65.00;;;;;;4955636;28;20074;-21
2022/01/19 08:13:04;;;;;;;6.88;4.88;;;15.50;64.70;;;;;;4957681;28;20094;-21
2022/01/19 08:15:30;;;;;;;10.18;5.10;;;15.60;64.50;;;;;;4948922;28;20097;-21
2022/01/19 08:17:56;;;;;;;5.28;4.60;;;15.60;64.40;;;;;;4940949;28;20047;-19
2022/01/19 08:20:21;;;;;;;6.15;4.43;;;15.60;64.50;;;;;;4956814;28;20066;-21
2022/01/19 08:22:47;;;;;;;4.15;3.75;;;15.50;64.40;;;;;;4956598;28;20196;-21
2022/01/19 08:25:13;;;;;;;4.90;4.00;;;15.50;64.40;;;;;;4956917;28;20397;-20
2022/01/19 08:27:38;;;;;;;4.18;3.65;;;15.50;64.40;;;;;;4976484;28;20042;-21
2022/01/19 08:30:09;;;;;;;4.32;3.65;;;15.50;64.50;;;;;;4976706;28;20479;-20
2022/01/19 08:32:37;;;;;;;4.13;3.72;;;15.50;64.50;;;;;;4976190;28;20051;-21
2022/01/19 08:35:04;;;;;;;4.05;3.75;;;15.50;64.40;;;;;;4959389;28;20045;-18
2022/01/19 08:37:30;;;;;;;3.67;3.38;;;15.50;64.40;;;;;;4956409;28;20139;-20
2022/01/19 08:39:56;;;;;;;5.00;3.80;;;15.50;64.40;;;;;;4957230;28;20082;-21
2022/01/19 08:42:21;;;;;;;3.88;3.55;;;15.50;64.40;;;;;;4943563;28;20102;-20
2022/01/19 08:44:47;;;;;;;5.30;3.88;;;15.60;64.40;;;;;;4955512;28;20047;-22
2022/01/19 08:47:13;;;;;;;3.47;3.03;;;15.60;64.30;;;;;;4956489;28;20075;-21
2022/01/19 08:49:38;;;;;;;3.67;3.40;;;15.60;64.30;;;;;;4956468;28;20460;-19
2022/01/19 08:52:04;;;;;;;3.85;3.55;;;15.60;64.30;;;;;;4956830;28;20071;-19
2022/01/19 08:54:30;;;;;;;3.85;3.08;;;15.60;64.30;;;;;;4955610;28;20063;-21
2022/01/19 08:56:56;;;;;;;5.10;3.65;;;15.60;64.30;;;;;;4956851;28;20055;-18
2022/01/19 08:59:21;;;;;;;4.47;3.33;;;15.60;64.30;;;;;;4956128;28;20043;-19
2022/01/19 09:01:47;;;;;;;3.78;3.38;;;15.60;64.40;;;;;;4957064;28;20050;-19
2022/01/19 09:04:13;;;;;;;4.85;3.90;;;15.60;64.40;;;;;;4956494;28;20531;-18
2022/01/19 09:06:38;;;;;;;4.05;3.65;;;15.60;64.50;;;;;;4956147;28;20097;-20
2022/01/19 09:09:04;;;;;;;3.53;3.20;;;15.70;64.20;;;;;;4956737;28;20178;-21
2022/01/19 09:11:29;;;;;;;5.07;3.22;;;15.60;64.30;;;;;;4955845;28;20415;-21
2022/01/19 09:13:55;;;;;;;8.98;4.38;;;15.60;64.30;;;;;;4956261;28;20047;-21
2022/01/19 09:16:20;;;;;;;10.07;4.90;;;15.60;64.40;;;;;;4958695;28;20049;-18
2022/01/19 09:18:46;;;;;;;10.10;4.50;;;15.60;64.40;;;;;;4959880;28;20115;-18
2022/01/19 09:21:12;;;;;;;5.55;3.53;;;15.60;64.40;;;;;;4959228;28;20051;-21
2022/01/19 09:23:37;;;;;;;5.70;3.80;;;15.60;64.30;;;;;;4959465;28;20126;-20
2022/01/19 09:26:03;;;;;;;6.13;3.72;;;15.60;64.40;;;;;;4960572;28;20475;-21
2022/01/19 09:28:29;;;;;;;6.28;3.35;;;15.60;64.40;;;;;;4947818;28;20059;-21
2022/01/19 09:30:59;;;;;;;6.35;3.83;;;15.60;64.40;;;;;;4941204;28;20054;-19
2022/01/19 09:33:26;;;;;;;4.65;3.63;;;15.60;64.30;;;;;;4940720;28;20432;-21
2022/01/19 09:38:18;;;;;;;6.90;3.20;;;15.60;64.30;;;;;;4940615;28;20476;-21
2022/01/19 09:40:44;;;;;;;4.20;3.25;;;15.60;64.30;;;;;;4947997;28;20059;-20
2022/01/19 09:43:09;;;;;;;3.45;3.15;;;15.60;64.30;;;;;;4960317;28;20050;-21
2022/01/19 09:45:35;;;;;;;4.15;3.25;;;15.60;64.50;;;;;;4958630;28;20051;-19
2022/01/19 09:48:01;;;;;;;5.10;3.50;;;15.60;64.30;;;;;;4959590;28;20110;-23
2022/01/19 09:50:26;;;;;;;7.15;3.70;;;15.60;64.30;;;;;;4959133;28;20051;-21
2022/01/19 09:52:52;;;;;;;6.32;3.50;;;15.70;64.20;;;;;;4958929;28;20047;-21
2022/01/19 09:55:17;;;;;;;3.38;3.08;;;15.70;64.10;;;;;;4959330;28;20093;-21
2022/01/19 09:57:43;;;;;;;3.20;2.90;;;15.60;64.10;;;;;;4958871;28;20415;-21
2022/01/19 10:00:09;;;;;;;3.53;3.05;;;15.70;64.10;;;;;;4955228;28;20059;-21
2022/01/19 10:02:35;;;;;;;3.55;2.95;;;15.70;64.10;;;;;;4940106;28;20048;-20
2022/01/19 10:05:07;;;;;;;4.15;2.92;;;15.60;64.20;;;;;;4953871;28;20055;-22
2022/01/19 10:07:32;;;;;;;5.40;2.83;;;15.60;64.10;;;;;;4959076;28;20054;-21
2022/01/19 10:10:01;;;;;;;6.80;5.05;;;15.70;63.90;;;;;;4959695;28;20134;-22
2022/01/19 10:18:17;;;;;;;11.15;8.30;;;15.60;64.00;;;;;;4958292;28;20050;-21
2022/01/19 10:20:44;;;;;;;11.18;7.55;;;15.60;64.10;;;;;;4958441;28;20592;-21
2022/01/19 10:23:37;;;;;;;11.38;8.00;;;15.60;64.20;;;;;;4958344;28;20102;-21
2022/01/19 10:26:10;;;;;;;11.73;8.32;;;15.70;64.10;;;;;;4956144;28;20058;-21
2022/01/19 10:29:07;;;;;;;14.82;8.95;;;15.60;64.30;;;;;;4958056;28;20063;-18
2022/01/19 10:31:34;;;;;;;10.65;8.18;;;15.70;64.40;;;;;;4957665;28;20138;-19
2022/01/19 10:34:14;;;;;;;13.63;9.48;;;15.70;64.20;;;;;;4957505;28;20051;-19
2022/01/19 10:36:55;;;;;;;12.15;9.85;;;15.70;64.20;;;;;;4939310;28;20079;-22
2022/01/19 10:39:21;;;;;;;19.40;12.90;;;15.70;64.20;;;;;;4957138;28;20055;-21
2022/01/19 10:42:17;;;;;;;17.80;13.70;;;15.70;64.10;;;;;;4959345;28;20581;-18
2022/01/19 10:44:48;;;;;;;19.73;14.82;;;15.70;64.00;;;;;;4954633;28;20594;-21
2022/01/19 10:47:17;;;;;;;20.42;15.32;;;15.70;64.20;;;;;;4969491;28;20047;-20
2022/01/19 10:49:52;;;;;;;18.92;14.57;;;15.70;64.10;;;;;;4939611;28;20496;-20
2022/01/19 10:52:27;;;;;;;22.38;15.73;;;15.70;64.10;;;;;;4947772;28;20047;-20
2022/01/19 10:54:53;;;;;;;22.30;14.77;;;15.70;64.10;;;;;;4959106;28;20122;-19
2022/01/19 10:57:18;;;;;;;19.98;15.27;;;15.70;64.00;;;;;;4940656;28;20090;-21
2022/01/19 10:59:44;;;;;;;22.58;14.85;;;15.70;64.00;;;;;;4939527;28;20102;-18
2022/01/19 11:02:12;;;;;;;22.90;13.60;;;15.70;63.80;;;;;;4945678;28;20472;-18
2022/01/19 11:04:39;;;;;;;21.67;13.15;;;15.70;63.80;;;;;;4957492;28;20047;-20
2022/01/19 11:07:06;;;;;;;17.75;13.02;;;15.80;63.80;;;;;;4958472;28;20077;-18
2022/01/19 11:09:43;;;;;;;17.13;13.23;;;15.80;63.60;;;;;;4956160;28;20054;-21
2022/01/19 11:12:13;;;;;;;18.30;13.25;;;15.80;63.60;;;;;;4957762;28;20051;-21
2022/01/19 11:14:40;;;;;;;19.73;13.82;;;15.80;63.70;;;;;;4958029;28;20035;-21
2022/01/19 11:17:06;;;;;;;19.77;15.07;;;15.80;63.70;;;;;;4941181;28;20067;-18
2022/01/19 11:19:38;;;;;;;22.90;15.68;;;15.80;63.70;;;;;;4944404;28;20071;-21
2022/01/19 11:22:19;;;;;;;21.23;16.17;;;15.80;63.70;;;;;;4956697;28;20078;-20
2022/01/19 11:25:08;;;;;;;22.02;15.30;;;15.80;63.80;;;;;;4957797;28;20074;-20
2022/01/19 11:27:44;;;;;;;21.55;14.68;;;15.80;63.70;;;;;;4957504;28;20046;-21
2022/01/19 11:30:10;;;;;;;19.30;15.45;;;15.80;63.60;;;;;;4958277;28;20040;-20
2022/01/19 11:32:36;;;;;;;19.73;15.73;;;15.80;63.80;;;;;;4957527;28;20062;-21
2022/01/19 11:35:03;;;;;;;20.85;15.13;;;15.80;63.70;;;;;;4956529;28;20047;-19
2022/01/19 11:37:43;;;;;;;19.48;14.68;;;15.80;63.60;;;;;;4957419;28;20055;-22
2022/01/19 11:40:13;;;;;;;22.40;15.35;;;15.80;63.50;;;;;;4958097;28;20047;-20
2022/01/19 11:42:39;;;;;;;20.58;13.98;;;15.80;63.40;;;;;;4952046;28;20145;-21
2022/01/19 11:45:06;;;;;;;14.20;12.07;;;15.80;63.40;;;;;;4947894;28;20322;-19
2022/01/19 11:47:32;;;;;;;18.08;13.07;;;15.80;63.50;;;;;;4957453;28;20046;-22
2022/01/19 11:49:57;;;;;;;14.95;12.88;;;15.80;63.40;;;;;;4957939;28;20031;-21
2022/01/19 11:52:39;;;;;;;17.05;12.48;;;15.80;63.40;;;;;;4956291;28;20066;-18
2022/01/19 11:55:25;;;;;;;16.25;12.48;;;15.80;63.50;;;;;;4957797;28;20066;-22
2022/01/19 11:58:14;;;;;;;16.00;12.10;;;15.80;63.40;;;;;;4957432;28;20039;-22
2022/01/19 12:00:40;;;;;;;17.17;12.48;;;15.90;63.40;;;;;;4940726;28;20047;-21
2022/01/19 12:03:32;;;;;;;16.65;11.63;;;15.90;63.30;;;;;;4944009;28;20532;-19
2022/01/19 12:05:58;;;;;;;14.82;11.23;;;15.90;63.30;;;;;;4937962;28;20043;-21
2022/01/19 12:08:36;;;;;;;18.70;12.63;;;15.90;63.40;;;;;;4955427;28;20043;-19
2022/01/19 12:11:23;;;;;;;17.58;12.32;;;15.90;63.30;;;;;;4957030;28;20043;-21
2022/01/19 12:14:01;;;;;;;12.40;9.93;;;15.90;63.20;;;;;;4608524;28;10000113;-20
2022/01/19 12:19:06;;;;;;;13.95;11.65;;;16.00;63.20;;;;;;4951860;28;20062;-19
2022/01/19 12:21:31;;;;;;;12.43;10.88;;;16.00;63.10;;;;;;4950286;28;20050;-21
2022/01/19 12:24:26;;;;;;;13.10;10.50;;;16.10;63.10;;;;;;4953928;28;20085;-22
2022/01/19 12:26:59;;;;;;;13.80;10.68;;;16.10;63.00;;;;;;4936014;28;20051;-19
2022/01/19 12:29:34;;;;;;;12.38;10.15;;;16.10;63.00;;;;;;4952813;28;20051;-21
2022/01/19 12:32:02;;;;;;;13.38;10.27;;;16.10;63.00;;;;;;4962568;28;20047;-21
2022/01/19 12:34:40;;;;;;;12.43;10.55;;;16.20;63.10;;;;;;4952727;28;20051;-21
2022/01/19 12:37:06;;;;;;;11.38;9.32;;;16.20;62.90;;;;;;4945882;28;20126;-20
2022/01/19 12:39:36;;;;;;;13.85;9.82;;;16.20;63.00;;;;;;4952640;28;20043;-22
2022/01/19 12:42:04;;;;;;;10.70;8.82;;;16.20;62.80;;;;;;4953247;28;20625;-21
2022/01/19 12:44:46;;;;;;;10.75;8.90;;;16.30;62.80;;;;;;4941430;28;20075;-21
2022/01/19 12:47:29;;;;;;;11.63;9.02;;;16.30;62.80;;;;;;4953359;28;20047;-21
2022/01/19 12:49:55;;;;;;;11.10;8.68;;;16.30;62.80;;;;;;4947920;28;20047;-19
2022/01/19 12:52:22;;;;;;;12.48;9.18;;;16.30;63.00;;;;;;4952126;28;20050;-18
2022/01/19 12:54:47;;;;;;;9.27;8.25;;;16.30;63.00;;;;;;4950015;28;20054;-20
2022/01/19 12:57:15;;;;;;;9.65;8.00;;;16.30;62.80;;;;;;4952956;28;20051;-20
2022/01/19 12:59:42;;;;;;;11.70;8.98;;;16.30;63.00;;;;;;4951262;28;20083;-20
2022/01/19 13:02:07;;;;;;;10.73;8.27;;;16.30;62.60;;;;;;4953977;28;20067;-20
2022/01/19 13:04:34;;;;;;;9.02;7.65;;;16.30;62.70;;;;;;4956111;28;20051;-21
2022/01/19 13:07:17;;;;;;;9.18;8.18;;;16.30;62.90;;;;;;4954541;28;20047;-18
2022/01/19 13:10:06;;;;;;;7.97;7.20;;;16.30;62.70;;;;;;4955440;28;20043;-23
2022/01/19 13:12:36;;;;;;;7.53;6.82;;;16.30;63.10;;;;;;4944098;28;20044;-18
2022/01/19 13:15:01;;;;;;;7.50;6.78;;;16.30;63.00;;;;;;4954627;28;20039;-18
2022/01/19 13:17:39;;;;;;;8.27;7.47;;;16.30;62.80;;;;;;4957251;28;20054;-19
2022/01/19 13:20:35;;;;;;;7.53;6.65;;;16.30;63.30;;;;;;4956132;28;20043;-18
2022/01/19 13:23:04;;;;;;;7.50;6.80;;;16.30;62.80;;;;;;4955528;28;20175;-21
2022/01/19 13:25:31;;;;;;;7.45;6.85;;;16.30;63.00;;;;;;4954719;28;20051;-19
2022/01/19 13:27:58;;;;;;;8.70;6.85;;;16.20;63.00;;;;;;4958658;28;20051;-21
2022/01/19 13:30:25;;;;;;;7.85;7.00;;;16.20;63.00;;;;;;4956534;28;20105;-19
2022/01/19 13:32:51;;;;;;;7.57;6.82;;;16.20;63.10;;;;;;4946837;28;20194;-20
2022/01/19 13:35:17;;;;;;;7.35;6.65;;;16.20;63.00;;;;;;4956548;28;20268;-23
2022/01/19 13:37:48;;;;;;;7.30;6.60;;;16.20;63.10;;;;;;4955058;28;20804;-23
2022/01/19 13:40:22;;;;;;;6.72;6.03;;;16.20;63.00;;;;;;4950290;28;20047;-20
2022/01/19 13:42:51;;;;;;;6.22;5.57;;;16.20;63.00;;;;;;4955185;28;20062;-19
2022/01/19 13:45:36;;;;;;;6.47;5.88;;;16.20;63.10;;;;;;4953895;28;20057;-21
2022/01/19 13:48:21;;;;;;;6.47;5.88;;;16.20;63.10;;;;;;4944903;28;20039;-21
2022/01/19 13:50:49;;;;;;;6.07;5.55;;;16.20;63.10;;;;;;4952686;28;20070;-19
2022/01/19 13:53:16;;;;;;;6.60;6.00;;;16.20;63.20;;;;;;4955725;28;20051;-21
2022/01/19 13:55:41;;;;;;;6.50;5.80;;;16.20;63.00;;;;;;4954283;28;20086;-21
2022/01/19 13:58:12;;;;;;;6.65;6.00;;;16.20;63.10;;;;;;4956145;28;20043;-21
2022/01/19 14:00:56;;;;;;;5.95;5.45;;;16.30;62.80;;;;;;4954503;28;20054;-21
2022/01/19 14:03:22;;;;;;;5.35;4.93;;;16.20;63.10;;;;;;4956928;28;20058;-21
2022/01/19 14:05:51;;;;;;;5.68;5.20;;;16.20;62.80;;;;;;4957217;28;20078;-21
2022/01/19 14:08:27;;;;;;;5.07;4.68;;;16.20;62.80;;;;;;4969585;28;20055;-20
2022/01/19 14:10:53;;;;;;;7.00;5.10;;;16.20;62.90;;;;;;4959595;28;20631;-20
2022/01/19 14:13:33;;;;;;;5.03;4.57;;;16.20;62.80;;;;;;4959105;28;20051;-21
2022/01/19 14:16:20;;;;;;;4.90;4.60;;;16.20;62.80;;;;;;4957341;28;20047;-21
2022/01/19 14:19:15;;;;;;;5.03;4.63;;;16.20;62.80;;;;;;4958907;28;20055;-22
2022/01/19 14:21:53;;;;;;;;;;;16.30;62.90;;;;;;4954275;28;20043;-22
2022/01/19 14:24:19;;;;;;;4.70;4.30;;;16.30;62.80;;;;;;4958297;28;19914;-21